createdAt,value
2023-01-13T00:01:16.406Z,3.78
2023-01-13T00:03:43.454Z,3.79
2023-01-13T00:06:18.493Z,3.81
2023-01-13T00:08:49.247Z,3.80
2023-01-13T00:11:16.771Z,3.79
2023-01-13T00:13:44.127Z,3.79
2023-01-13T00:16:17.637Z,3.79
2023-01-13T00:18:44.976Z,3.78
2023-01-13T00:21:17.155Z,3.75
2023-01-13T00:23:45.046Z,3.74
2023-01-13T00:26:18.843Z,3.72
2023-01-13T00:28:45.965Z,3.73
2023-01-13T00:31:17.749Z,3.74
2023-01-13T00:33:48.465Z,3.74
2023-01-13T00:36:16.935Z,3.76
2023-01-13T00:38:44.907Z,3.78
2023-01-13T00:41:15.125Z,3.81
2023-01-13T00:43:42.579Z,3.81
2023-01-13T00:46:11.114Z,3.82
2023-01-13T00:48:39.969Z,3.83
2023-01-13T00:51:09.460Z,3.82
2023-01-13T00:53:38.353Z,3.80
2023-01-13T00:56:14.549Z,3.80
2023-01-13T00:58:42.168Z,3.80
2023-01-13T01:01:11.278Z,3.78
2023-01-13T01:03:38.523Z,3.75
2023-01-13T01:06:07.716Z,3.78
2023-01-13T01:08:35.022Z,3.78
2023-01-13T01:11:07.056Z,3.76
2023-01-13T01:13:35.410Z,3.74
2023-01-13T01:16:10.141Z,3.71
2023-01-13T01:18:39.611Z,3.68
2023-01-13T01:21:07.299Z,3.67
2023-01-13T01:23:34.732Z,3.66
2023-01-13T01:26:12.293Z,3.66
2023-01-13T01:28:39.968Z,3.62
2023-01-13T01:31:08.312Z,3.57
2023-01-13T01:33:36.253Z,3.54
2023-01-13T01:36:03.604Z,3.52
2023-01-13T01:38:30.663Z,3.49
2023-01-13T01:40:58.109Z,3.46
2023-01-13T01:43:58.562Z,3.44
2023-01-13T01:46:27.267Z,3.44
2023-01-13T01:48:57.044Z,3.45
2023-01-13T01:51:24.084Z,3.44
2023-01-13T01:53:51.337Z,3.42
2023-01-13T01:56:18.384Z,3.40
2023-01-13T01:58:49.423Z,3.21
2023-01-13T02:01:16.644Z,3.10
2023-01-13T02:03:46.792Z,3.08
2023-01-13T02:06:13.842Z,3.08
2023-01-13T02:08:41.810Z,3.07
2023-01-13T02:11:46.333Z,3.07
2023-01-13T02:14:13.584Z,3.07
2023-01-13T02:17:04.183Z,3.10
2023-01-13T02:19:57.445Z,3.11
2023-01-13T02:22:46.096Z,3.11
2023-01-13T02:25:55.436Z,3.10
2023-01-13T02:28:35.294Z,3.08
2023-01-13T02:31:26.533Z,3.05
2023-01-13T02:34:07.178Z,3.04
2023-01-13T02:36:49.364Z,3.05
2023-01-13T02:39:41.431Z,3.06
2023-01-13T02:42:30.773Z,3.07
2023-01-13T02:45:12.462Z,3.09
2023-01-13T02:47:39.535Z,3.09
2023-01-13T02:50:09.633Z,3.10
2023-01-13T02:52:50.413Z,3.11
2023-01-13T02:55:19.798Z,3.15
2023-01-13T02:57:47.569Z,3.18
2023-01-13T03:00:16.037Z,3.23
2023-01-13T03:02:43.130Z,3.28
2023-01-13T03:05:13.961Z,3.35
2023-01-13T03:08:28.378Z,3.44
2023-01-13T03:11:11.606Z,3.56
2023-01-13T03:13:41.321Z,3.62
2023-01-13T03:16:08.667Z,3.68
2023-01-13T03:19:26.097Z,3.74
2023-01-13T03:21:59.593Z,3.81
2023-01-13T03:24:30.424Z,3.87
2023-01-13T03:27:11.196Z,3.90
2023-01-13T03:29:40.911Z,3.91
2023-01-13T03:32:32.630Z,3.93
2023-01-13T03:35:01.321Z,3.99
2023-01-13T03:37:32.052Z,4.03
2023-01-13T03:40:01.070Z,4.07
2023-01-13T03:42:30.037Z,4.10
2023-01-13T03:45:05.170Z,4.11
2023-01-13T03:47:35.799Z,4.10
2023-01-13T03:50:30.088Z,4.12
2023-01-13T03:53:06.252Z,4.15
2023-01-13T03:55:38.957Z,4.17
2023-01-13T03:58:15.891Z,4.17
2023-01-13T04:01:16.749Z,4.16
2023-01-13T04:03:49.936Z,4.17
2023-01-13T04:06:32.450Z,4.14
2023-01-13T04:09:04.288Z,4.12
2023-01-13T04:11:32.888Z,4.11
2023-01-13T04:14:00.856Z,4.11
2023-01-13T04:16:29.131Z,4.09
2023-01-13T04:18:56.485Z,4.10
2023-01-13T04:21:23.554Z,4.13
2023-01-13T04:23:51.428Z,4.16
2023-01-13T04:26:19.282Z,4.18
2023-01-13T04:28:46.412Z,4.19
2023-01-13T04:31:13.551Z,4.20
2023-01-13T04:33:41.119Z,4.23
2023-01-13T04:36:08.784Z,4.28
2023-01-13T04:38:35.934Z,4.33
2023-01-13T04:41:02.984Z,4.36
2023-01-13T04:43:30.127Z,4.39
2023-01-13T04:45:57.523Z,4.37
2023-01-13T08:44:39.507Z,2.68
2023-01-13T08:47:07.071Z,3.69
2023-01-13T08:49:34.720Z,3.83
2023-01-13T08:52:01.771Z,3.90
2023-01-13T08:54:28.916Z,3.91
2023-01-13T08:56:56.331Z,3.92
2023-01-13T08:59:23.519Z,3.93
2023-01-13T09:01:52.090Z,3.94
2023-01-13T09:04:21.449Z,3.92
2023-01-13T09:06:48.561Z,3.90
2023-01-13T09:09:16.108Z,3.91
2023-01-13T09:12:05.287Z,3.92
2023-01-13T09:17:57.850Z,3.97
2023-01-13T09:20:25.606Z,3.95
2023-01-13T09:22:52.651Z,3.95
2023-01-13T09:25:19.697Z,3.98
2023-01-13T09:27:46.745Z,4.00
2023-01-13T09:30:14.215Z,4.00
2023-01-13T09:32:41.561Z,4.08
2023-01-13T09:35:09.521Z,4.28
2023-01-13T09:37:38.615Z,4.29
2023-01-13T09:40:17.380Z,4.28
2023-01-13T09:43:10.907Z,4.27
2023-01-13T09:45:43.080Z,4.27
2023-01-13T09:48:19.340Z,4.27
2023-01-13T09:51:03.971Z,4.26
2023-01-13T09:53:40.076Z,4.24
2023-01-13T09:56:09.592Z,4.21
2023-01-13T09:58:36.617Z,4.18
2023-01-13T10:01:13.372Z,4.16
2023-01-13T10:03:40.584Z,4.16
2023-01-13T10:06:13.005Z,4.15
2023-01-13T10:08:41.417Z,4.14
2023-01-13T10:11:36.490Z,4.15
2023-01-13T10:14:16.946Z,3.94
2023-01-13T10:16:43.999Z,4.07
2023-01-13T10:19:27.945Z,4.18
2023-01-13T10:22:01.126Z,4.18
2023-01-13T10:24:51.626Z,4.18
2023-01-13T10:27:40.698Z,4.18
2023-01-13T10:30:11.932Z,3.98
2023-01-13T10:32:39.275Z,3.90
2023-01-13T10:35:07.562Z,3.88
2023-01-13T10:37:34.609Z,3.84
2023-01-13T10:40:02.200Z,3.79
2023-01-13T10:42:29.327Z,3.74
2023-01-13T10:44:57.983Z,3.67
2023-01-13T10:47:35.919Z,3.63
2023-01-13T10:50:09.725Z,3.58
2023-01-13T10:52:41.541Z,3.55
2023-01-13T10:55:32.162Z,3.55
2023-01-13T10:58:18.331Z,3.54
2023-01-13T11:00:45.718Z,3.52
2023-01-13T11:03:16.985Z,3.53
2023-01-13T11:05:50.365Z,3.53
2023-01-13T11:08:18.833Z,3.55
2023-01-13T11:10:47.209Z,3.56
2023-01-13T11:13:26.791Z,3.56
2023-01-13T11:16:11.573Z,3.55
2023-01-13T11:19:02.828Z,3.56
2023-01-13T11:21:57.329Z,3.58
2023-01-13T11:24:58.784Z,3.59
2023-01-13T11:27:31.566Z,3.81
2023-01-13T11:30:13.452Z,3.88
2023-01-13T11:32:58.727Z,3.92
2023-01-13T11:35:25.777Z,3.95
2023-01-13T11:37:55.902Z,3.97
2023-01-13T11:40:38.302Z,3.98
2023-01-13T11:43:33.381Z,3.99
2023-01-13T11:46:00.744Z,4.01
2023-01-13T11:48:30.312Z,4.02
2023-01-13T11:51:03.055Z,4.03
2023-01-13T11:53:30.090Z,4.07
2023-01-13T11:56:58.583Z,4.10
2023-01-13T11:59:57.038Z,4.09
2023-01-13T12:03:03.167Z,4.04
2023-01-13T12:05:49.025Z,4.00
2023-01-13T12:08:38.483Z,3.95
2023-01-13T12:11:07.749Z,3.92
2023-01-13T12:16:53.946Z,3.80
2023-01-13T12:19:29.470Z,3.65
2023-01-13T12:22:12.935Z,3.64
2023-01-13T12:24:58.161Z,3.64
2023-01-13T12:27:44.861Z,3.65
2023-01-13T12:30:51.739Z,3.66
2023-01-13T12:33:37.721Z,3.65
2023-01-13T12:36:07.554Z,3.64
2023-01-13T12:39:18.533Z,3.63
2023-01-13T12:42:09.469Z,3.60
2023-01-13T12:44:36.593Z,3.61
2023-01-13T12:47:03.847Z,3.62
2023-01-13T12:49:34.769Z,3.64
2023-01-13T12:52:13.894Z,3.61
2023-01-13T12:54:40.970Z,3.58
2023-01-13T12:57:20.371Z,3.54
2023-01-13T12:59:59.717Z,3.52
2023-01-13T13:02:29.092Z,3.48
2023-01-13T13:04:57.804Z,3.46
2023-01-13T13:07:30.833Z,3.45
2023-01-13T13:10:03.092Z,3.46
2023-01-13T13:13:11.691Z,3.48
2023-01-13T13:15:39.230Z,3.53
2023-01-13T13:18:21.107Z,3.58
2023-01-13T13:20:57.391Z,3.65
2023-01-13T13:23:33.753Z,3.70
2023-01-13T13:26:09.813Z,3.76
2023-01-13T13:28:38.447Z,3.82
2023-01-13T13:31:21.036Z,3.88
2023-01-13T13:33:53.591Z,3.94
2023-01-13T13:36:29.950Z,3.99
2023-01-13T13:39:53.317Z,4.05
2023-01-13T13:42:40.229Z,4.11
2023-01-13T13:45:40.400Z,4.14
2023-01-13T13:48:27.745Z,4.14
2023-01-13T13:51:02.520Z,4.12
2023-01-13T13:53:40.612Z,4.10
2023-01-13T13:56:19.980Z,4.12
2023-01-13T13:58:47.275Z,4.14
2023-01-13T14:01:27.144Z,4.18
2023-01-13T14:04:20.971Z,4.21
2023-01-13T14:06:59.226Z,4.21
2023-01-13T14:09:28.896Z,4.16
2023-01-13T14:11:56.976Z,4.11
2023-01-13T14:14:25.251Z,4.09
2023-01-13T14:16:52.797Z,4.08
2023-01-13T14:19:25.575Z,4.08
2023-01-13T14:21:52.627Z,4.11
2023-01-13T14:24:21.288Z,4.12
2023-01-13T14:26:53.364Z,4.15
2023-01-13T14:29:23.795Z,4.19
2023-01-13T14:31:51.757Z,4.22
2023-01-13T14:34:31.683Z,4.21
2023-01-13T14:37:01.104Z,4.15
2023-01-13T14:39:40.126Z,4.11
2023-01-13T14:42:13.740Z,4.07
2023-01-13T14:44:52.676Z,4.04
2023-01-13T14:47:28.295Z,4.04
2023-01-13T14:49:59.119Z,4.06
2023-01-13T14:52:28.052Z,4.13
2023-01-13T14:54:55.068Z,4.17
2023-01-13T14:57:32.868Z,4.23
2023-01-13T15:00:15.171Z,4.26
2023-01-13T15:02:58.047Z,4.26
2023-01-13T15:05:33.433Z,4.25
2023-01-13T15:08:11.456Z,4.23
2023-01-13T15:11:00.713Z,4.22
2023-01-13T15:13:32.460Z,4.23
2023-01-13T15:16:00.875Z,4.22
2023-01-13T15:18:27.986Z,4.19
2023-01-13T15:20:55.028Z,4.18
2023-01-13T15:23:22.279Z,4.19
2023-01-13T15:25:49.349Z,4.21
2023-01-13T15:28:18.914Z,4.25
2023-01-13T15:30:46.805Z,4.29
2023-01-13T15:33:14.213Z,4.33
2023-01-13T15:35:43.437Z,4.38
2023-01-13T15:38:15.414Z,4.42
2023-01-13T15:40:42.806Z,4.45
2023-01-13T15:43:36.670Z,4.49
2023-01-13T15:46:23.498Z,4.53
2023-01-13T15:48:54.748Z,4.57
2023-01-13T15:51:22.008Z,4.60
2023-01-13T15:53:49.306Z,4.63
2023-01-13T15:56:24.133Z,4.63
2023-01-13T15:58:51.175Z,4.65
2023-01-13T16:01:18.423Z,4.65
2023-01-13T16:03:45.654Z,4.66
2023-01-13T16:06:25.017Z,4.68
2023-01-13T16:08:52.073Z,4.70
2023-01-13T16:11:19.125Z,4.71
2023-01-13T16:13:46.269Z,4.74
2023-01-13T16:16:19.769Z,4.77
2023-01-13T16:18:47.026Z,4.80
2023-01-13T16:21:14.591Z,4.79
2023-01-13T16:23:41.741Z,4.79
2023-01-13T16:26:19.651Z,4.80
2023-01-13T16:28:46.695Z,4.88
2023-01-13T16:31:23.280Z,5.10
2023-01-13T16:33:50.656Z,5.16
2023-01-13T16:36:18.201Z,5.20
2023-01-13T16:38:45.356Z,5.24
2023-01-13T16:41:12.433Z,5.28
2023-01-13T16:43:39.863Z,5.29
2023-01-13T16:46:15.101Z,5.32
2023-01-13T16:48:42.156Z,5.34
2023-01-13T16:51:09.309Z,5.36
2023-01-13T16:53:36.565Z,5.35
2023-01-13T16:56:03.699Z,5.37
2023-01-13T16:58:30.637Z,5.41
2023-01-13T17:00:57.733Z,5.45
2023-01-13T17:03:24.876Z,5.47
2023-01-13T17:05:52.005Z,5.50
2023-01-13T17:08:19.257Z,5.52
2023-01-13T17:10:46.613Z,5.54
2023-01-13T17:13:17.030Z,5.56
2023-01-13T17:15:45.538Z,5.57
2023-01-13T17:18:13.753Z,5.58
2023-01-13T17:20:41.484Z,5.58
2023-01-13T17:23:08.625Z,5.58
2023-01-13T17:25:35.661Z,5.55
2023-01-13T17:28:03.119Z,5.53
2023-01-13T17:30:30.157Z,5.53
2023-01-13T17:32:57.418Z,5.55
2023-01-13T17:35:25.404Z,5.57
2023-01-13T17:37:53.380Z,5.58
2023-01-13T17:40:20.915Z,5.53
2023-01-13T17:42:47.976Z,5.50
2023-01-13T17:45:16.643Z,5.47
2023-01-13T17:47:43.685Z,5.46
2023-01-13T17:50:11.044Z,5.44
2023-01-13T17:52:38.087Z,5.47
2023-01-13T17:55:05.644Z,5.50
2023-01-13T17:57:32.792Z,5.52
2023-01-13T17:59:59.832Z,5.51
2023-01-13T18:02:26.988Z,5.49
2023-01-13T18:04:54.236Z,5.47
2023-01-13T18:07:21.282Z,5.29
2023-01-13T18:09:48.740Z,5.17
2023-01-13T18:12:15.787Z,5.16
2023-01-13T18:14:42.931Z,5.16
2023-01-13T18:17:10.208Z,5.16
2023-01-13T18:19:55.974Z,5.16
2023-01-13T18:22:41.859Z,5.18
2023-01-13T18:25:31.436Z,5.19
2023-01-13T18:28:02.067Z,5.19
2023-01-13T18:30:29.107Z,5.23
2023-01-13T18:32:56.880Z,5.23
2023-01-13T18:35:24.226Z,5.34
2023-01-13T18:37:52.501Z,5.47
2023-01-13T18:40:19.675Z,5.49
2023-01-13T18:42:54.258Z,5.47
2023-01-13T18:45:32.214Z,5.46
2023-01-13T18:48:01.582Z,5.47
2023-01-13T18:50:28.743Z,5.48
2023-01-13T18:52:55.895Z,5.48
2023-01-13T18:55:23.046Z,5.49
2023-01-13T18:57:50.791Z,5.53
2023-01-13T19:00:19.454Z,5.56
2023-01-13T19:02:47.684Z,5.58
2023-01-13T19:05:14.909Z,5.58
2023-01-13T19:07:43.568Z,5.58
2023-01-13T19:10:13.064Z,5.57
2023-01-13T19:12:40.139Z,5.56
2023-01-13T19:15:08.003Z,5.57
2023-01-13T19:17:35.148Z,5.59
2023-01-13T19:20:02.424Z,5.62
2023-01-13T19:22:31.092Z,5.65
2023-01-13T19:24:58.500Z,5.67
2023-01-13T19:27:25.697Z,5.69
2023-01-13T19:29:54.073Z,5.72
2023-01-13T19:32:22.141Z,5.73
2023-01-13T19:34:51.241Z,5.71
2023-01-13T19:37:19.142Z,5.70
2023-01-13T19:39:46.259Z,5.69
2023-01-13T19:42:32.075Z,5.66
2023-01-13T19:45:18.133Z,5.63
2023-01-13T19:47:46.063Z,5.59
2023-01-13T19:50:13.953Z,5.54
2023-01-13T19:52:42.479Z,5.48
2023-01-13T19:55:11.924Z,5.42
2023-01-13T19:57:42.073Z,5.41
2023-01-13T20:00:10.349Z,5.36
2023-01-13T20:02:45.232Z,5.30
2023-01-13T20:05:18.273Z,5.25
2023-01-13T20:07:45.322Z,5.20
2023-01-13T20:10:13.690Z,5.17
2023-01-13T20:12:41.967Z,5.13
2023-01-13T20:15:10.035Z,5.10
2023-01-13T20:17:37.397Z,5.08
2023-01-13T20:20:04.891Z,5.05
2023-01-13T20:22:31.899Z,5.03
2023-01-13T20:24:58.941Z,5.03
2023-01-13T20:27:26.096Z,5.02
2023-01-13T20:29:53.443Z,5.00
2023-01-13T20:32:20.489Z,4.97
2023-01-13T20:34:47.547Z,4.90
2023-01-13T20:37:14.598Z,4.85
2023-01-13T20:39:45.626Z,4.83
2023-01-13T20:42:32.176Z,4.80
2023-01-13T20:45:00.207Z,4.78
2023-01-13T20:47:28.020Z,4.73
2023-01-13T20:49:55.111Z,4.69
2023-01-13T20:52:22.465Z,4.65
2023-01-13T20:54:49.414Z,4.65
2023-01-13T20:57:16.564Z,4.64
2023-01-13T20:59:43.607Z,4.64
2023-01-13T21:02:15.276Z,4.65
2023-01-13T21:04:42.449Z,4.68
2023-01-13T21:07:09.572Z,4.70
2023-01-13T21:09:36.923Z,4.74
2023-01-13T21:12:23.315Z,4.75
2023-01-13T21:15:09.304Z,4.75
2023-01-13T21:17:55.246Z,4.71
2023-01-13T21:20:22.354Z,4.70
2023-01-13T21:22:49.401Z,4.72
2023-01-13T21:25:17.356Z,4.72
2023-01-13T21:27:44.506Z,4.72
2023-01-13T21:30:15.463Z,4.71
2023-01-13T21:32:43.513Z,4.70
2023-01-13T21:35:10.881Z,4.69
2023-01-13T21:37:38.662Z,4.67
2023-01-13T21:40:07.121Z,4.67
2023-01-13T21:42:52.899Z,4.67
2023-01-13T21:45:38.618Z,4.69
2023-01-13T21:48:07.369Z,4.73
2023-01-13T21:50:34.418Z,4.76
2023-01-13T21:53:01.692Z,4.78
2023-01-13T21:55:28.937Z,4.78
